<?xml version="1.0" encoding="UTF-8" standalone="no" ?>
<gpx xmlns="http://www.topografix.com/GPX/1/1" xmlns:xsi="http://www.w3.org/2001/XMLSchema-instance" xsi:schemaLocation="http://www.topografix.com/GPX/1/1 http://www.topografix.com/GPX/1/1/gpx.xsd" version="1.1" creator="VisuGPX - https://www.visugpx.com">
  <metadata>
    <name>VTT.15.08.11</name>
    <desc><![CDATA[TrailRunner Route export]]></desc>
  </metadata>
  <trk>
    <name><![CDATA[VTT]]></name>
    <trkseg>
      <trkpt lat="47.16496" lon="-1.48069">
        <ele>5</ele>
        <time>2011-08-15T16:27:30Z</time>
      </trkpt>
      <trkpt lat="47.16461" lon="-1.48185">
        <ele>5</ele>
        <time>2011-08-15T16:27:47Z</time>
      </trkpt>
      <trkpt lat="47.16326" lon="-1.4815">
        <ele>8</ele>
        <time>2011-08-15T16:28:14Z</time>
      </trkpt>
      <trkpt lat="47.15914" lon="-1.47408">
        <ele>10</ele>
        <time>2011-08-15T16:30:25Z</time>
      </trkpt>
      <trkpt lat="47.15344" lon="-1.46785">
        <ele>6</ele>
        <time>2011-08-15T16:32:47Z</time>
      </trkpt>
      <trkpt lat="47.14924" lon="-1.46858">
        <ele>13</ele>
        <time>2011-08-15T16:34:12Z</time>
      </trkpt>
      <trkpt lat="47.14956" lon="-1.46704">
        <ele>16</ele>
        <time>2011-08-15T16:34:34Z</time>
      </trkpt>
      <trkpt lat="47.14956" lon="-1.46155">
        <ele>21</ele>
        <time>2011-08-15T16:35:49Z</time>
      </trkpt>
      <trkpt lat="47.14918" lon="-1.45961">
        <ele>17</ele>
        <time>2011-08-15T16:36:16Z</time>
      </trkpt>
      <trkpt lat="47.14643" lon="-1.45944">
        <ele>31</ele>
        <time>2011-08-15T16:37:11Z</time>
      </trkpt>
      <trkpt lat="47.14427" lon="-1.45695">
        <ele>30</ele>
        <time>2011-08-15T16:38:06Z</time>
      </trkpt>
      <trkpt lat="47.14202" lon="-1.45683">
        <ele>34</ele>
        <time>2011-08-15T16:38:51Z</time>
      </trkpt>
      <trkpt lat="47.13971" lon="-1.45236">
        <ele>35</ele>
        <time>2011-08-15T16:40:08Z</time>
      </trkpt>
      <trkpt lat="47.13878" lon="-1.44829">
        <ele>44</ele>
        <time>2011-08-15T16:41:06Z</time>
      </trkpt>
      <trkpt lat="47.13658" lon="-1.4426">
        <ele>37</ele>
        <time>2011-08-15T16:42:36Z</time>
      </trkpt>
      <trkpt lat="47.13508" lon="-1.44138">
        <ele>41</ele>
        <time>2011-08-15T16:43:10Z</time>
      </trkpt>
      <trkpt lat="47.13451" lon="-1.43851">
        <ele>47</ele>
        <time>2011-08-15T16:43:51Z</time>
      </trkpt>
      <trkpt lat="47.13395" lon="-1.43744">
        <ele>50</ele>
        <time>2011-08-15T16:44:09Z</time>
      </trkpt>
      <trkpt lat="47.1312" lon="-1.43339">
        <ele>48</ele>
        <time>2011-08-15T16:45:27Z</time>
      </trkpt>
      <trkpt lat="47.13028" lon="-1.431">
        <ele>53</ele>
        <time>2011-08-15T16:46:05Z</time>
      </trkpt>
      <trkpt lat="47.12947" lon="-1.42934">
        <ele>55</ele>
        <time>2011-08-15T16:46:32Z</time>
      </trkpt>
      <trkpt lat="47.1283" lon="-1.42576">
        <ele>53</ele>
        <time>2011-08-15T16:47:27Z</time>
      </trkpt>
      <trkpt lat="47.12692" lon="-1.4225">
        <ele>52</ele>
        <time>2011-08-15T16:48:19Z</time>
      </trkpt>
      <trkpt lat="47.12441" lon="-1.42388">
        <ele>58</ele>
        <time>2011-08-15T16:49:13Z</time>
      </trkpt>
      <trkpt lat="47.1243" lon="-1.4236">
        <ele>58</ele>
        <time>2011-08-15T16:49:17Z</time>
      </trkpt>
      <trkpt lat="47.12392" lon="-1.42416">
        <ele>57</ele>
        <time>2011-08-15T16:49:28Z</time>
      </trkpt>
      <trkpt lat="47.12388" lon="-1.42527">
        <ele>57</ele>
        <time>2011-08-15T16:49:43Z</time>
      </trkpt>
      <trkpt lat="47.12321" lon="-1.42581">
        <ele>55</ele>
        <time>2011-08-15T16:49:58Z</time>
      </trkpt>
      <trkpt lat="47.12299" lon="-1.42634">
        <ele>54</ele>
        <time>2011-08-15T16:50:07Z</time>
      </trkpt>
      <trkpt lat="47.12259" lon="-1.42916">
        <ele>54</ele>
        <time>2011-08-15T16:50:46Z</time>
      </trkpt>
      <trkpt lat="47.1216" lon="-1.43175">
        <ele>51</ele>
        <time>2011-08-15T16:51:27Z</time>
      </trkpt>
      <trkpt lat="47.12127" lon="-1.43119">
        <ele>52</ele>
        <time>2011-08-15T16:51:37Z</time>
      </trkpt>
      <trkpt lat="47.12235" lon="-1.4336">
        <ele>52</ele>
        <time>2011-08-15T16:52:16Z</time>
      </trkpt>
      <trkpt lat="47.12382" lon="-1.436">
        <ele>51</ele>
        <time>2011-08-15T16:53:00Z</time>
      </trkpt>
      <trkpt lat="47.12497" lon="-1.43763">
        <ele>54</ele>
        <time>2011-08-15T16:53:32Z</time>
      </trkpt>
      <trkpt lat="47.12616" lon="-1.43847">
        <ele>54</ele>
        <time>2011-08-15T16:53:59Z</time>
      </trkpt>
      <trkpt lat="47.12759" lon="-1.43802">
        <ele>54.461937</ele>
        <time>2011-08-15T16:54:28Z</time>
      </trkpt>
      <trkpt lat="47.12933" lon="-1.43704">
        <ele>58.561508</ele>
        <time>2011-08-15T16:55:05Z</time>
      </trkpt>
      <trkpt lat="47.13084" lon="-1.43656">
        <ele>50.74939</ele>
        <time>2011-08-15T16:55:36Z</time>
      </trkpt>
      <trkpt lat="47.13228" lon="-1.43526">
        <ele>52.042526</ele>
        <time>2011-08-15T16:56:10Z</time>
      </trkpt>
      <trkpt lat="47.13252" lon="-1.43523">
        <ele>46.397873</ele>
        <time>2011-08-15T16:56:15Z</time>
      </trkpt>
      <trkpt lat="47.13216" lon="-1.43484">
        <ele>43.096642</ele>
        <time>2011-08-15T16:56:24Z</time>
      </trkpt>
      <trkpt lat="47.13256" lon="-1.43515">
        <ele>47.457428</ele>
        <time>2011-08-15T16:56:33Z</time>
      </trkpt>
      <trkpt lat="47.13292" lon="-1.43504">
        <ele>56.776085</ele>
        <time>2011-08-15T16:56:40Z</time>
      </trkpt>
      <trkpt lat="47.13499" lon="-1.43285">
        <ele>46.436676</ele>
        <time>2011-08-15T16:57:31Z</time>
      </trkpt>
      <trkpt lat="47.13563" lon="-1.43459">
        <ele>51.885468</ele>
        <time>2011-08-15T16:57:58Z</time>
      </trkpt>
      <trkpt lat="47.13642" lon="-1.43562">
        <ele>46.8498</ele>
        <time>2011-08-15T16:58:19Z</time>
      </trkpt>
      <trkpt lat="47.13535" lon="-1.43627">
        <ele>51.725693</ele>
        <time>2011-08-15T16:58:42Z</time>
      </trkpt>
      <trkpt lat="47.13486" lon="-1.43707">
        <ele>52.357262</ele>
        <time>2011-08-15T16:58:57Z</time>
      </trkpt>
      <trkpt lat="47.13522" lon="-1.43824">
        <ele>50.917152</ele>
        <time>2011-08-15T16:59:15Z</time>
      </trkpt>
      <trkpt lat="47.13522" lon="-1.43921">
        <ele>50.913322</ele>
        <time>2011-08-15T16:59:28Z</time>
      </trkpt>
      <trkpt lat="47.13498" lon="-1.44056">
        <ele>52.354424</ele>
        <time>2011-08-15T16:59:47Z</time>
      </trkpt>
      <trkpt lat="47.13505" lon="-1.44155">
        <ele>43.70414</ele>
        <time>2011-08-15T17:00:01Z</time>
      </trkpt>
      <trkpt lat="47.13518" lon="-1.44147">
        <ele>42.713005</ele>
        <time>2011-08-15T17:00:03Z</time>
      </trkpt>
      <trkpt lat="47.13559" lon="-1.44193">
        <ele>40.930519</ele>
        <time>2011-08-15T17:00:14Z</time>
      </trkpt>
      <trkpt lat="47.13639" lon="-1.44235">
        <ele>32.30629</ele>
        <time>2011-08-15T17:00:31Z</time>
      </trkpt>
      <trkpt lat="47.1377" lon="-1.44035">
        <ele>41.422775</ele>
        <time>2011-08-15T17:01:08Z</time>
      </trkpt>
      <trkpt lat="47.13845" lon="-1.43965">
        <ele>29.439423</ele>
        <time>2011-08-15T17:01:26Z</time>
      </trkpt>
      <trkpt lat="47.13901" lon="-1.43983">
        <ele>18.395561</ele>
        <time>2011-08-15T17:01:38Z</time>
      </trkpt>
      <trkpt lat="47.14088" lon="-1.43987">
        <ele>19.832832</ele>
        <time>2011-08-15T17:02:15Z</time>
      </trkpt>
      <trkpt lat="47.14097" lon="-1.44051">
        <ele>23.116684</ele>
        <time>2011-08-15T17:02:24Z</time>
      </trkpt>
      <trkpt lat="47.14061" lon="-1.44127">
        <ele>32.469055</ele>
        <time>2011-08-15T17:02:37Z</time>
      </trkpt>
      <trkpt lat="47.14043" lon="-1.44238">
        <ele>35.184372</ele>
        <time>2011-08-15T17:02:52Z</time>
      </trkpt>
      <trkpt lat="47.14054" lon="-1.44265">
        <ele>32.502762</ele>
        <time>2011-08-15T17:02:56Z</time>
      </trkpt>
      <trkpt lat="47.14034" lon="-1.44254">
        <ele>33.606728</ele>
        <time>2011-08-15T17:03:01Z</time>
      </trkpt>
      <trkpt lat="47.1392" lon="-1.44334">
        <ele>41.590607</ele>
        <time>2011-08-15T17:03:26Z</time>
      </trkpt>
      <trkpt lat="47.13917" lon="-1.44412">
        <ele>40.130539</ele>
        <time>2011-08-15T17:03:37Z</time>
      </trkpt>
      <trkpt lat="47.13776" lon="-1.44544">
        <ele>46.92897</ele>
        <time>2011-08-15T17:04:10Z</time>
      </trkpt>
      <trkpt lat="47.13814" lon="-1.44715">
        <ele>46.391472</ele>
        <time>2011-08-15T17:04:35Z</time>
      </trkpt>
      <trkpt lat="47.13873" lon="-1.44665">
        <ele>69.782173</ele>
        <time>2011-08-15T17:04:48Z</time>
      </trkpt>
      <trkpt lat="47.14003" lon="-1.44655">
        <ele>39.466316</ele>
        <time>2011-08-15T17:05:15Z</time>
      </trkpt>
      <trkpt lat="47.14173" lon="-1.44599">
        <ele>39.303207</ele>
        <time>2011-08-15T17:05:49Z</time>
      </trkpt>
      <trkpt lat="47.14253" lon="-1.44784">
        <ele>30.380188</ele>
        <time>2011-08-15T17:06:19Z</time>
      </trkpt>
      <trkpt lat="47.14445" lon="-1.44719">
        <ele>29.387817</ele>
        <time>2011-08-15T17:06:59Z</time>
      </trkpt>
      <trkpt lat="47.14517" lon="-1.44729">
        <ele>31.52314</ele>
        <time>2011-08-15T17:07:13Z</time>
      </trkpt>
      <trkpt lat="47.14625" lon="-1.44913">
        <ele>35.932907</ele>
        <time>2011-08-15T17:07:47Z</time>
      </trkpt>
      <trkpt lat="47.14708" lon="-1.44972">
        <ele>31.06498</ele>
        <time>2011-08-15T17:08:05Z</time>
      </trkpt>
      <trkpt lat="47.14861" lon="-1.44997">
        <ele>25.620201</ele>
        <time>2011-08-15T17:08:36Z</time>
      </trkpt>
      <trkpt lat="47.15022" lon="-1.44963">
        <ele>28.320915</ele>
        <time>2011-08-15T17:09:09Z</time>
      </trkpt>
      <trkpt lat="47.15068" lon="-1.44929">
        <ele>13.111725</ele>
        <time>2011-08-15T17:09:19Z</time>
      </trkpt>
      <trkpt lat="47.15068" lon="-1.45256">
        <ele>43.369476</ele>
        <time>2011-08-15T17:10:03Z</time>
      </trkpt>
      <trkpt lat="47.15098" lon="-1.45351">
        <ele>37.350128</ele>
        <time>2011-08-15T17:10:18Z</time>
      </trkpt>
      <trkpt lat="47.15027" lon="-1.45669">
        <ele>28.954086</ele>
        <time>2011-08-15T17:11:03Z</time>
      </trkpt>
      <trkpt lat="47.15028" lon="-1.45783">
        <ele>20.811996</ele>
        <time>2011-08-15T17:11:19Z</time>
      </trkpt>
      <trkpt lat="47.14978" lon="-1.46037">
        <ele>61.666542</ele>
        <time>2011-08-15T17:11:55Z</time>
      </trkpt>
      <trkpt lat="47.1502" lon="-1.46157">
        <ele>43.050011</ele>
        <time>2011-08-15T17:12:13Z</time>
      </trkpt>
      <trkpt lat="47.14968" lon="-1.46326">
        <ele>53.946304</ele>
        <time>2011-08-15T17:12:39Z</time>
      </trkpt>
      <trkpt lat="47.14973" lon="-1.46629">
        <ele>38.864136</ele>
        <time>2011-08-15T17:13:20Z</time>
      </trkpt>
      <trkpt lat="47.15" lon="-1.46706">
        <ele>17.753754</ele>
        <time>2011-08-15T17:13:32Z</time>
      </trkpt>
      <trkpt lat="47.15031" lon="-1.46718">
        <ele>9.504246</ele>
        <time>2011-08-15T17:13:38Z</time>
      </trkpt>
      <trkpt lat="47.15101" lon="-1.46595">
        <ele>18.278206</ele>
        <time>2011-08-15T17:14:00Z</time>
      </trkpt>
      <trkpt lat="47.15269" lon="-1.46004">
        <ele>5.132889</ele>
        <time>2011-08-15T17:15:27Z</time>
      </trkpt>
      <trkpt lat="47.15289" lon="-1.45562">
        <ele>8.403713</ele>
        <time>2011-08-15T17:16:28Z</time>
      </trkpt>
      <trkpt lat="47.15295" lon="-1.45701">
        <ele>18.344803</ele>
        <time>2011-08-15T17:16:47Z</time>
      </trkpt>
      <trkpt lat="47.15251" lon="-1.46103">
        <ele>35.149773</ele>
        <time>2011-08-15T17:17:42Z</time>
      </trkpt>
      <trkpt lat="47.15203" lon="-1.46231">
        <ele>5.538998</ele>
        <time>2011-08-15T17:18:02Z</time>
      </trkpt>
      <trkpt lat="47.15136" lon="-1.4652">
        <ele>15.048195</ele>
        <time>2011-08-15T17:18:44Z</time>
      </trkpt>
      <trkpt lat="47.15097" lon="-1.46618">
        <ele>14.239346</ele>
        <time>2011-08-15T17:18:59Z</time>
      </trkpt>
      <trkpt lat="47.15019" lon="-1.4672">
        <ele>11.006554</ele>
        <time>2011-08-15T17:19:20Z</time>
      </trkpt>
      <trkpt lat="47.14996" lon="-1.46852">
        <ele>11.945759</ele>
        <time>2011-08-15T17:19:38Z</time>
      </trkpt>
      <trkpt lat="47.15118" lon="-1.46872">
        <ele>11.945759</ele>
        <time>2011-08-15T17:20:03Z</time>
      </trkpt>
      <trkpt lat="47.15117" lon="-1.46823">
        <ele>5.439857</ele>
        <time>2011-08-15T17:20:10Z</time>
      </trkpt>
      <trkpt lat="47.15289" lon="-1.46803">
        <ele>4.182362</ele>
        <time>2011-08-15T17:20:44Z</time>
      </trkpt>
      <trkpt lat="47.15339" lon="-1.46773">
        <ele>3.309925</ele>
        <time>2011-08-15T17:20:55Z</time>
      </trkpt>
      <trkpt lat="47.15351" lon="-1.4683">
        <ele>15.641075</ele>
        <time>2011-08-15T17:21:03Z</time>
      </trkpt>
      <trkpt lat="47.15448" lon="-1.4696">
        <ele>20.893997</ele>
        <time>2011-08-15T17:21:30Z</time>
      </trkpt>
      <trkpt lat="47.15544" lon="-1.47036">
        <ele>7.604893</ele>
        <time>2011-08-15T17:21:51Z</time>
      </trkpt>
      <trkpt lat="47.15634" lon="-1.47053">
        <ele>25.8144</ele>
        <time>2011-08-15T17:22:10Z</time>
      </trkpt>
      <trkpt lat="47.15769" lon="-1.47182">
        <ele>27.813759</ele>
        <time>2011-08-15T17:22:42Z</time>
      </trkpt>
      <trkpt lat="47.15898" lon="-1.47419">
        <ele>19.756783</ele>
        <time>2011-08-15T17:23:23Z</time>
      </trkpt>
      <trkpt lat="47.16002" lon="-1.47514">
        <ele>11.994762</ele>
        <time>2011-08-15T17:23:48Z</time>
      </trkpt>
      <trkpt lat="47.16081" lon="-1.47657">
        <ele>8.771706</ele>
        <time>2011-08-15T17:24:13Z</time>
      </trkpt>
      <trkpt lat="47.16138" lon="-1.47798">
        <ele>13.21228</ele>
        <time>2011-08-15T17:24:35Z</time>
      </trkpt>
      <trkpt lat="47.16159" lon="-1.47802">
        <ele>6.824505</ele>
        <time>2011-08-15T17:24:39Z</time>
      </trkpt>
      <trkpt lat="47.16224" lon="-1.4774">
        <ele>7.768772</ele>
        <time>2011-08-15T17:24:55Z</time>
      </trkpt>
      <trkpt lat="47.16255" lon="-1.47747">
        <ele>12.654827</ele>
        <time>2011-08-15T17:25:01Z</time>
      </trkpt>
      <trkpt lat="47.16283" lon="-1.47759">
        <ele>7.957119</ele>
        <time>2011-08-15T17:25:07Z</time>
      </trkpt>
      <trkpt lat="47.16382" lon="-1.47876">
        <ele>7.953671</ele>
        <time>2011-08-15T17:25:33Z</time>
      </trkpt>
      <trkpt lat="47.16447" lon="-1.47994">
        <ele>16.465843</ele>
        <time>2011-08-15T17:25:53Z</time>
      </trkpt>
      <trkpt lat="47.16488" lon="-1.48167">
        <ele>2.439396</ele>
        <time>2011-08-15T17:26:18Z</time>
      </trkpt>
      <trkpt lat="47.16481" lon="-1.48118">
        <ele>12.157005</ele>
        <time>2011-08-15T17:26:25Z</time>
      </trkpt>
      <trkpt lat="47.16487" lon="-1.4816">
        <ele>16.416969</ele>
        <time>2011-08-15T17:26:31Z</time>
      </trkpt>
      <trkpt lat="47.16504" lon="-1.48173">
        <ele>16.416969</ele>
        <time>2011-08-15T17:26:35Z</time>
      </trkpt>
      <trkpt lat="47.16574" lon="-1.4809">
        <ele>3.448517</ele>
        <time>2011-08-15T17:26:53Z</time>
      </trkpt>
      <trkpt lat="47.16686" lon="-1.48017">
        <ele>3.941879</ele>
        <time>2011-08-15T17:27:17Z</time>
      </trkpt>
      <trkpt lat="47.1677" lon="-1.48">
        <ele>9.884323</ele>
        <time>2011-08-15T17:27:34Z</time>
      </trkpt>
      <trkpt lat="47.1681" lon="-1.48013">
        <ele>11.515053</ele>
        <time>2011-08-15T17:27:42Z</time>
      </trkpt>
      <trkpt lat="47.16832" lon="-1.48064">
        <ele>9.435375</ele>
        <time>2011-08-15T17:27:51Z</time>
      </trkpt>
      <trkpt lat="47.16907" lon="-1.48146">
        <ele>11.162331</ele>
        <time>2011-08-15T17:28:09Z</time>
      </trkpt>
      <trkpt lat="47.16935" lon="-1.48213">
        <ele>18.023857</ele>
        <time>2011-08-15T17:28:20Z</time>
      </trkpt>
      <trkpt lat="47.17026" lon="-1.48197">
        <ele>13.776409</ele>
        <time>2011-08-15T17:28:38Z</time>
      </trkpt>
      <trkpt lat="47.17112" lon="-1.48154">
        <ele>11.331982</ele>
        <time>2011-08-15T17:28:57Z</time>
      </trkpt>
      <trkpt lat="47.17308" lon="-1.48484">
        <ele>25.811676</ele>
        <time>2011-08-15T17:29:56Z</time>
      </trkpt>
      <trkpt lat="47.17443" lon="-1.48902">
        <ele>31.174644</ele>
        <time>2011-08-15T17:30:59Z</time>
      </trkpt>
      <trkpt lat="47.1746" lon="-1.48991">
        <ele>24.665588</ele>
        <time>2011-08-15T17:31:12Z</time>
      </trkpt>
      <trkpt lat="47.17447" lon="-1.49017">
        <ele>26.040077</ele>
        <time>2011-08-15T17:31:16Z</time>
      </trkpt>
      <trkpt lat="47.17544" lon="-1.48946">
        <ele>22.396263</ele>
        <time>2011-08-15T17:31:38Z</time>
      </trkpt>
      <trkpt lat="47.17676" lon="-1.48774">
        <ele>27.2332</ele>
        <time>2011-08-15T17:32:13Z</time>
      </trkpt>
      <trkpt lat="47.17759" lon="-1.48595">
        <ele>26.332474</ele>
        <time>2011-08-15T17:32:43Z</time>
      </trkpt>
      <trkpt lat="47.17846" lon="-1.48547">
        <ele>34.133858</ele>
        <time>2011-08-15T17:33:02Z</time>
      </trkpt>
      <trkpt lat="47.17847" lon="-1.4853">
        <ele>38.177818</ele>
        <time>2011-08-15T17:33:04Z</time>
      </trkpt>
      <trkpt lat="47.17887" lon="-1.48503">
        <ele>28.336876</ele>
        <time>2011-08-15T17:33:13Z</time>
      </trkpt>
      <trkpt lat="47.17905" lon="-1.48059">
        <ele>18.805077</ele>
        <time>2011-08-15T17:34:13Z</time>
      </trkpt>
      <trkpt lat="47.17984" lon="-1.4805">
        <ele>18.571068</ele>
        <time>2011-08-15T17:34:29Z</time>
      </trkpt>
      <trkpt lat="47.17982" lon="-1.47956">
        <ele>35.991295</ele>
        <time>2011-08-15T17:34:42Z</time>
      </trkpt>
      <trkpt lat="47.18" lon="-1.4793">
        <ele>24.564346</ele>
        <time>2011-08-15T17:34:47Z</time>
      </trkpt>
      <trkpt lat="47.18035" lon="-1.47606">
        <ele>23.908447</ele>
        <time>2011-08-15T17:35:32Z</time>
      </trkpt>
      <trkpt lat="47.18069" lon="-1.47604">
        <ele>21.020065</ele>
        <time>2011-08-15T17:35:38Z</time>
      </trkpt>
      <trkpt lat="47.18251" lon="-1.47783">
        <ele>19.848312</ele>
        <time>2011-08-15T17:36:22Z</time>
      </trkpt>
      <trkpt lat="47.18227" lon="-1.47303">
        <ele>18.359123</ele>
        <time>2011-08-15T17:37:28Z</time>
      </trkpt>
      <trkpt lat="47.18332" lon="-1.47233">
        <ele>20.638557</ele>
        <time>2011-08-15T17:37:51Z</time>
      </trkpt>
      <trkpt lat="47.18349" lon="-1.47243">
        <ele>24.194321</ele>
        <time>2011-08-15T17:37:55Z</time>
      </trkpt>
      <trkpt lat="47.18365" lon="-1.47314">
        <ele>25.175583</ele>
        <time>2011-08-15T17:38:05Z</time>
      </trkpt>
      <trkpt lat="47.18359" lon="-1.47268">
        <ele>21.641907</ele>
        <time>2011-08-15T17:38:12Z</time>
      </trkpt>
      <trkpt lat="47.18447" lon="-1.47159">
        <ele>33.866913</ele>
        <time>2011-08-15T17:38:35Z</time>
      </trkpt>
      <trkpt lat="47.18421" lon="-1.46877">
        <ele>40.050873</ele>
        <time>2011-08-15T17:39:13Z</time>
      </trkpt>
      <trkpt lat="47.18364" lon="-1.46855">
        <ele>37.94075</ele>
        <time>2011-08-15T17:39:25Z</time>
      </trkpt>
      <trkpt lat="47.18423" lon="-1.4687">
        <ele>35.900299</ele>
        <time>2011-08-15T17:39:37Z</time>
      </trkpt>
      <trkpt lat="47.18436" lon="-1.46984">
        <ele>31.178635</ele>
        <time>2011-08-15T17:39:53Z</time>
      </trkpt>
      <trkpt lat="47.18425" lon="-1.4703">
        <ele>32.515083</ele>
        <time>2011-08-15T17:39:59Z</time>
      </trkpt>
      <trkpt lat="47.18437" lon="-1.47029">
        <ele>30.41291</ele>
        <time>2011-08-15T17:40:02Z</time>
      </trkpt>
      <trkpt lat="47.1841" lon="-1.46551">
        <ele>39.444832</ele>
        <time>2011-08-15T17:41:07Z</time>
      </trkpt>
      <trkpt lat="47.1842" lon="-1.46515">
        <ele>40.039337</ele>
        <time>2011-08-15T17:41:12Z</time>
      </trkpt>
      <trkpt lat="47.18338" lon="-1.46274">
        <ele>37.91745</ele>
        <time>2011-08-15T17:41:49Z</time>
      </trkpt>
      <trkpt lat="47.18019" lon="-1.45895">
        <ele>32.41153</ele>
        <time>2011-08-15T17:43:11Z</time>
      </trkpt>
      <trkpt lat="47.18027" lon="-1.45885">
        <ele>30.984459</ele>
        <time>2011-08-15T17:43:13Z</time>
      </trkpt>
      <trkpt lat="47.17964" lon="-1.45855">
        <ele>43.278481</ele>
        <time>2011-08-15T17:43:27Z</time>
      </trkpt>
      <trkpt lat="47.17951" lon="-1.45819">
        <ele>38.486946</ele>
        <time>2011-08-15T17:43:32Z</time>
      </trkpt>
      <trkpt lat="47.17878" lon="-1.45742">
        <ele>30.672813</ele>
        <time>2011-08-15T17:43:50Z</time>
      </trkpt>
      <trkpt lat="47.17804" lon="-1.45608">
        <ele>30.915184</ele>
        <time>2011-08-15T17:44:14Z</time>
      </trkpt>
      <trkpt lat="47.17721" lon="-1.45559">
        <ele>27.241341</ele>
        <time>2011-08-15T17:44:32Z</time>
      </trkpt>
      <trkpt lat="47.17689" lon="-1.45487">
        <ele>32.359383</ele>
        <time>2011-08-15T17:44:43Z</time>
      </trkpt>
      <trkpt lat="47.17645" lon="-1.45444">
        <ele>34.129684</ele>
        <time>2011-08-15T17:44:54Z</time>
      </trkpt>
      <trkpt lat="47.17475" lon="-1.45325">
        <ele>33.022736</ele>
        <time>2011-08-15T17:45:31Z</time>
      </trkpt>
      <trkpt lat="47.17401" lon="-1.45382">
        <ele>33.494324</ele>
        <time>2011-08-15T17:45:48Z</time>
      </trkpt>
      <trkpt lat="47.17349" lon="-1.45389">
        <ele>39.456001</ele>
        <time>2011-08-15T17:45:59Z</time>
      </trkpt>
      <trkpt lat="47.17282" lon="-1.45336">
        <ele>36.881531</ele>
        <time>2011-08-15T17:46:14Z</time>
      </trkpt>
      <trkpt lat="47.17292" lon="-1.45262">
        <ele>33.796944</ele>
        <time>2011-08-15T17:46:24Z</time>
      </trkpt>
      <trkpt lat="47.1728" lon="-1.45306">
        <ele>42.600021</ele>
        <time>2011-08-15T17:46:31Z</time>
      </trkpt>
      <trkpt lat="47.17229" lon="-1.45352">
        <ele>45.064163</ele>
        <time>2011-08-15T17:46:43Z</time>
      </trkpt>
      <trkpt lat="47.17109" lon="-1.45386">
        <ele>46.463043</ele>
        <time>2011-08-15T17:47:07Z</time>
      </trkpt>
      <trkpt lat="47.16864" lon="-1.45533">
        <ele>39.022057</ele>
        <time>2011-08-15T17:48:00Z</time>
      </trkpt>
      <trkpt lat="47.16869" lon="-1.45316">
        <ele>41.266113</ele>
        <time>2011-08-15T17:48:30Z</time>
      </trkpt>
      <trkpt lat="47.16831" lon="-1.45256">
        <ele>42.171196</ele>
        <time>2011-08-15T17:48:41Z</time>
      </trkpt>
      <trkpt lat="47.16872" lon="-1.45292">
        <ele>35.657974</ele>
        <time>2011-08-15T17:48:50Z</time>
      </trkpt>
      <trkpt lat="47.16791" lon="-1.45276">
        <ele>42.276573</ele>
        <time>2011-08-15T17:49:07Z</time>
      </trkpt>
      <trkpt lat="47.16715" lon="-1.45087">
        <ele>44.638565</ele>
        <time>2011-08-15T17:49:37Z</time>
      </trkpt>
      <trkpt lat="47.16633" lon="-1.45014">
        <ele>48.103973</ele>
        <time>2011-08-15T17:49:56Z</time>
      </trkpt>
      <trkpt lat="47.16506" lon="-1.44687">
        <ele>42.102242</ele>
        <time>2011-08-15T17:50:47Z</time>
      </trkpt>
      <trkpt lat="47.16452" lon="-1.4464">
        <ele>40.745567</ele>
        <time>2011-08-15T17:51:00Z</time>
      </trkpt>
      <trkpt lat="47.16354" lon="-1.44425">
        <ele>37.165787</ele>
        <time>2011-08-15T17:51:35Z</time>
      </trkpt>
      <trkpt lat="47.16337" lon="-1.44334">
        <ele>38.240616</ele>
        <time>2011-08-15T17:51:48Z</time>
      </trkpt>
      <trkpt lat="47.16321" lon="-1.44317">
        <ele>37.951706</ele>
        <time>2011-08-15T17:51:52Z</time>
      </trkpt>
      <trkpt lat="47.16325" lon="-1.44247">
        <ele>38.565857</ele>
        <time>2011-08-15T17:52:01Z</time>
      </trkpt>
      <trkpt lat="47.16293" lon="-1.44171">
        <ele>38.156258</ele>
        <time>2011-08-15T17:52:14Z</time>
      </trkpt>
      <trkpt lat="47.16224" lon="-1.44148">
        <ele>35.790176</ele>
        <time>2011-08-15T17:52:28Z</time>
      </trkpt>
      <trkpt lat="47.16214" lon="-1.43857">
        <ele>39.252144</ele>
        <time>2011-08-15T17:53:07Z</time>
      </trkpt>
      <trkpt lat="47.16113" lon="-1.43943">
        <ele>37.344505</ele>
        <time>2011-08-15T17:53:31Z</time>
      </trkpt>
      <trkpt lat="47.16097" lon="-1.43928">
        <ele>37.853416</ele>
        <time>2011-08-15T17:53:35Z</time>
      </trkpt>
      <trkpt lat="47.16101" lon="-1.43889">
        <ele>40.41774</ele>
        <time>2011-08-15T17:53:40Z</time>
      </trkpt>
      <trkpt lat="47.16009" lon="-1.43974">
        <ele>39.076569</ele>
        <time>2011-08-15T17:54:02Z</time>
      </trkpt>
      <trkpt lat="47.15889" lon="-1.43977">
        <ele>40.395477</ele>
        <time>2011-08-15T17:54:26Z</time>
      </trkpt>
      <trkpt lat="47.15722" lon="-1.44039">
        <ele>38.008499</ele>
        <time>2011-08-15T17:55:01Z</time>
      </trkpt>
      <trkpt lat="47.15594" lon="-1.43814">
        <ele>13.002872</ele>
        <time>2011-08-15T17:55:40Z</time>
      </trkpt>
      <trkpt lat="47.15564" lon="-1.4378">
        <ele>9.104679</ele>
        <time>2011-08-15T17:55:48Z</time>
      </trkpt>
      <trkpt lat="47.15554" lon="-1.43793">
        <ele>9.622402</ele>
        <time>2011-08-15T17:55:51Z</time>
      </trkpt>
      <trkpt lat="47.15558" lon="-1.43773">
        <ele>12.646629</ele>
        <time>2011-08-15T17:55:54Z</time>
      </trkpt>
      <trkpt lat="47.15577" lon="-1.43794">
        <ele>12.334068</ele>
        <time>2011-08-15T17:55:59Z</time>
      </trkpt>
      <trkpt lat="47.15531" lon="-1.43728">
        <ele>16.979904</ele>
        <time>2011-08-15T17:56:12Z</time>
      </trkpt>
      <trkpt lat="47.15474" lon="-1.43688">
        <ele>11.274921</ele>
        <time>2011-08-15T17:56:24Z</time>
      </trkpt>
      <trkpt lat="47.15551" lon="-1.43733">
        <ele>12.702255</ele>
        <time>2011-08-15T17:56:41Z</time>
      </trkpt>
      <trkpt lat="47.15559" lon="-1.4377">
        <ele>8.35165</ele>
        <time>2011-08-15T17:56:46Z</time>
      </trkpt>
      <trkpt lat="47.15545" lon="-1.43835">
        <ele>16.342056</ele>
        <time>2011-08-15T17:56:55Z</time>
      </trkpt>
      <trkpt lat="47.15377" lon="-1.44005">
        <ele>14.434563</ele>
        <time>2011-08-15T17:57:36Z</time>
      </trkpt>
      <trkpt lat="47.15376" lon="-1.44121">
        <ele>18.936249</ele>
        <time>2011-08-15T17:57:52Z</time>
      </trkpt>
      <trkpt lat="47.15365" lon="-1.44121">
        <ele>13.621311</ele>
        <time>2011-08-15T17:57:54Z</time>
      </trkpt>
      <trkpt lat="47.15371" lon="-1.44075">
        <ele>9.178585</ele>
        <time>2011-08-15T17:58:01Z</time>
      </trkpt>
      <trkpt lat="47.15354" lon="-1.44044">
        <ele>10.896229</ele>
        <time>2011-08-15T17:58:06Z</time>
      </trkpt>
      <trkpt lat="47.15248" lon="-1.44211">
        <ele>18.1922</ele>
        <time>2011-08-15T17:58:37Z</time>
      </trkpt>
      <trkpt lat="47.1523" lon="-1.44284">
        <ele>14.108025</ele>
        <time>2011-08-15T17:58:48Z</time>
      </trkpt>
      <trkpt lat="47.15317" lon="-1.44516">
        <ele>9.080379</ele>
        <time>2011-08-15T17:59:24Z</time>
      </trkpt>
      <trkpt lat="47.15421" lon="-1.44631">
        <ele>15.131363</ele>
        <time>2011-08-15T17:59:50Z</time>
      </trkpt>
      <trkpt lat="47.15433" lon="-1.44873">
        <ele>19.19899</ele>
        <time>2011-08-15T18:00:23Z</time>
      </trkpt>
      <trkpt lat="47.15417" lon="-1.45061">
        <ele>14.286896</ele>
        <time>2011-08-15T18:00:49Z</time>
      </trkpt>
      <trkpt lat="47.15457" lon="-1.45219">
        <ele>16.142555</ele>
        <time>2011-08-15T18:01:12Z</time>
      </trkpt>
      <trkpt lat="47.15531" lon="-1.45231">
        <ele>9.141468</ele>
        <time>2011-08-15T18:01:27Z</time>
      </trkpt>
      <trkpt lat="47.1555" lon="-1.45192">
        <ele>18.060486</ele>
        <time>2011-08-15T18:01:33Z</time>
      </trkpt>
      <trkpt lat="47.15539" lon="-1.45093">
        <ele>19.529396</ele>
        <time>2011-08-15T18:01:47Z</time>
      </trkpt>
      <trkpt lat="47.1569" lon="-1.45025">
        <ele>22.673553</ele>
        <time>2011-08-15T18:02:19Z</time>
      </trkpt>
      <trkpt lat="47.15718" lon="-1.4508">
        <ele>25.444244</ele>
        <time>2011-08-15T18:02:28Z</time>
      </trkpt>
      <trkpt lat="47.15769" lon="-1.45365">
        <ele>35.730515</ele>
        <time>2011-08-15T18:03:08Z</time>
      </trkpt>
      <trkpt lat="47.15819" lon="-1.45383">
        <ele>36.963509</ele>
        <time>2011-08-15T18:03:19Z</time>
      </trkpt>
      <trkpt lat="47.15826" lon="-1.45401">
        <ele>36.579956</ele>
        <time>2011-08-15T18:03:22Z</time>
      </trkpt>
      <trkpt lat="47.15807" lon="-1.45609">
        <ele>31.386749</ele>
        <time>2011-08-15T18:03:50Z</time>
      </trkpt>
      <trkpt lat="47.15671" lon="-1.45779">
        <ele>33.785812</ele>
        <time>2011-08-15T18:04:26Z</time>
      </trkpt>
      <trkpt lat="47.15675" lon="-1.45843">
        <ele>37.824821</ele>
        <time>2011-08-15T18:04:35Z</time>
      </trkpt>
      <trkpt lat="47.15662" lon="-1.45877">
        <ele>42.997505</ele>
        <time>2011-08-15T18:04:40Z</time>
      </trkpt>
      <trkpt lat="47.15457" lon="-1.46044">
        <ele>20.713432</ele>
        <time>2011-08-15T18:05:27Z</time>
      </trkpt>
      <trkpt lat="47.15418" lon="-1.45975">
        <ele>14.781502</ele>
        <time>2011-08-15T18:05:39Z</time>
      </trkpt>
      <trkpt lat="47.15458" lon="-1.46043">
        <ele>19.083298</ele>
        <time>2011-08-15T18:05:51Z</time>
      </trkpt>
      <trkpt lat="47.15564" lon="-1.46325">
        <ele>17.642311</ele>
        <time>2011-08-15T18:06:35Z</time>
      </trkpt>
      <trkpt lat="47.15765" lon="-1.46534">
        <ele>27.432648</ele>
        <time>2011-08-15T18:07:25Z</time>
      </trkpt>
      <trkpt lat="47.15783" lon="-1.46581">
        <ele>28.704071</ele>
        <time>2011-08-15T18:07:32Z</time>
      </trkpt>
      <trkpt lat="47.15793" lon="-1.46707">
        <ele>25.72377</ele>
        <time>2011-08-15T18:07:49Z</time>
      </trkpt>
      <trkpt lat="47.15852" lon="-1.46704">
        <ele>25.266144</ele>
        <time>2011-08-15T18:08:01Z</time>
      </trkpt>
      <trkpt lat="47.1579" lon="-1.46705">
        <ele>24.090279</ele>
        <time>2011-08-15T18:08:13Z</time>
      </trkpt>
      <trkpt lat="47.15773" lon="-1.4655">
        <ele>28.195084</ele>
        <time>2011-08-15T18:08:35Z</time>
      </trkpt>
      <trkpt lat="47.15575" lon="-1.46349">
        <ele>15.205772</ele>
        <time>2011-08-15T18:09:23Z</time>
      </trkpt>
      <trkpt lat="47.15457" lon="-1.46046">
        <ele>17.944862</ele>
        <time>2011-08-15T18:10:11Z</time>
      </trkpt>
      <trkpt lat="47.15418" lon="-1.45991">
        <ele>22.413078</ele>
        <time>2011-08-15T18:10:21Z</time>
      </trkpt>
      <trkpt lat="47.15325" lon="-1.46074">
        <ele>15.018181</ele>
        <time>2011-08-15T18:10:43Z</time>
      </trkpt>
      <trkpt lat="47.1532" lon="-1.46399">
        <ele>20.859207</ele>
        <time>2011-08-15T18:11:27Z</time>
      </trkpt>
      <trkpt lat="47.15286" lon="-1.46422">
        <ele>14.367188</ele>
        <time>2011-08-15T18:11:35Z</time>
      </trkpt>
      <trkpt lat="47.15332" lon="-1.46546">
        <ele>11.759846</ele>
        <time>2011-08-15T18:11:54Z</time>
      </trkpt>
      <trkpt lat="47.15311" lon="-1.46645">
        <ele>10.95871</ele>
        <time>2011-08-15T18:12:08Z</time>
      </trkpt>
      <trkpt lat="47.15343" lon="-1.46806">
        <ele>6.933067</ele>
        <time>2011-08-15T18:12:31Z</time>
      </trkpt>
      <trkpt lat="47.15475" lon="-1.46977">
        <ele>13.515713</ele>
        <time>2011-08-15T18:13:06Z</time>
      </trkpt>
      <trkpt lat="47.1556" lon="-1.47038">
        <ele>10.321396</ele>
        <time>2011-08-15T18:13:25Z</time>
      </trkpt>
      <trkpt lat="47.15637" lon="-1.47041">
        <ele>10.391319</ele>
        <time>2011-08-15T18:13:41Z</time>
      </trkpt>
      <trkpt lat="47.15793" lon="-1.47216">
        <ele>14.23135</ele>
        <time>2011-08-15T18:14:20Z</time>
      </trkpt>
      <trkpt lat="47.15903" lon="-1.47418">
        <ele>6.842491</ele>
        <time>2011-08-15T18:14:55Z</time>
      </trkpt>
      <trkpt lat="47.1605" lon="-1.47596">
        <ele>8.715076</ele>
        <time>2011-08-15T18:15:34Z</time>
      </trkpt>
      <trkpt lat="47.16151" lon="-1.47815">
        <ele>8.060783</ele>
        <time>2011-08-15T18:16:10Z</time>
      </trkpt>
      <trkpt lat="47.16197" lon="-1.48015">
        <ele>8.345276</ele>
        <time>2011-08-15T18:16:38Z</time>
      </trkpt>
      <trkpt lat="47.163" lon="-1.48141">
        <ele>9.726013</ele>
        <time>2011-08-15T18:17:05Z</time>
      </trkpt>
      <trkpt lat="47.16351" lon="-1.48186">
        <ele>8.730896</ele>
        <time>2011-08-15T18:17:17Z</time>
      </trkpt>
      <trkpt lat="47.16468" lon="-1.48192">
        <ele>12.820873</ele>
        <time>2011-08-15T18:17:40Z</time>
      </trkpt>
      <trkpt lat="47.16567" lon="-1.48104">
        <ele>8.086727</ele>
        <time>2011-08-15T18:18:04Z</time>
      </trkpt>
      <trkpt lat="47.16514" lon="-1.48135">
        <ele>8.273407</ele>
        <time>2011-08-15T18:18:15Z</time>
      </trkpt>
      <trkpt lat="47.16491" lon="-1.48078">
        <ele>10.817303</ele>
        <time>2011-08-15T18:18:24Z</time>
      </trkpt>
      <trkpt lat="47.165" lon="-1.48048">
        <ele>10.817303</ele>
        <time>2011-08-15T18:18:28Z</time>
      </trkpt>
      <trkpt lat="47.16491" lon="-1.48051">
        <ele>4.192482</ele>
        <time>2011-08-15T18:18:30Z</time>
      </trkpt>
    </trkseg>
  </trk>
</gpx>